createdAt,value
2024-02-14T00:00:20.626Z,6.21
2024-02-14T00:01:20.637Z,6.16
2024-02-14T00:02:20.549Z,6.15
2024-02-14T00:03:20.599Z,6.19
2024-02-14T00:04:20.605Z,6.24
2024-02-14T00:05:20.570Z,6.25
2024-02-14T00:06:20.598Z,6.21
2024-02-14T00:07:20.606Z,6.15
2024-02-14T00:08:20.538Z,6.11
2024-02-14T00:09:20.527Z,6.15
2024-02-14T00:10:20.823Z,6.25
2024-02-14T00:11:20.523Z,6.16
2024-02-14T00:12:20.524Z,6.19
2024-02-14T00:13:20.530Z,6.25
2024-02-14T00:14:20.548Z,6.28
2024-02-14T00:15:20.535Z,6.16
2024-02-14T00:16:20.488Z,6.35
2024-02-14T00:17:20.493Z,6.35
2024-02-14T00:18:20.640Z,6.32
2024-02-14T00:19:20.629Z,6.38
2024-02-14T00:20:20.522Z,6.40
2024-02-14T00:21:20.508Z,6.19
2024-02-14T00:22:20.507Z,6.31
2024-02-14T00:23:20.487Z,6.35
2024-02-14T00:24:20.475Z,6.19
2024-02-14T00:25:21.046Z,6.25
2024-02-14T00:26:21.450Z,6.31
2024-02-14T00:27:20.421Z,6.27
2024-02-14T00:28:20.443Z,6.32
2024-02-14T00:29:20.437Z,6.30
2024-02-14T00:30:20.429Z,6.31
2024-02-14T00:31:20.419Z,6.32
2024-02-14T00:32:20.453Z,6.25
2024-02-14T00:33:20.662Z,6.32
2024-02-14T00:34:20.556Z,6.32
2024-02-14T00:35:20.478Z,6.42
2024-02-14T00:36:20.489Z,6.34
2024-02-14T00:37:20.397Z,6.37
2024-02-14T00:38:20.430Z,6.35
2024-02-14T00:39:20.382Z,6.32
2024-02-14T00:40:20.445Z,6.42
2024-02-14T00:41:20.397Z,6.31
2024-02-14T00:42:20.416Z,6.30
2024-02-14T00:43:20.394Z,6.30
2024-02-14T00:44:20.389Z,6.40
2024-02-14T00:45:20.347Z,6.31
2024-02-14T00:46:20.363Z,6.31
2024-02-14T00:47:20.398Z,6.28
2024-02-14T00:48:20.442Z,6.31
2024-02-14T00:49:20.462Z,6.32
2024-02-14T00:50:20.330Z,6.37
2024-02-14T00:51:20.369Z,6.40
2024-02-14T00:52:20.374Z,6.38
2024-02-14T00:53:20.334Z,6.38
2024-02-14T00:54:20.326Z,6.40
2024-02-14T00:55:20.339Z,6.47
2024-02-14T00:56:20.329Z,6.38
2024-02-14T00:57:20.318Z,6.49
2024-02-14T00:58:20.311Z,6.50
2024-02-14T00:59:20.313Z,6.50
2024-02-14T01:00:20.326Z,6.50
2024-02-14T01:01:20.317Z,6.46
2024-02-14T01:02:20.306Z,6.52
2024-02-14T01:03:20.278Z,6.63
2024-02-14T01:04:20.283Z,6.74
2024-02-14T01:05:20.321Z,6.71
2024-02-14T01:06:20.286Z,6.63
2024-02-14T01:07:20.244Z,6.78
2024-02-14T01:08:20.260Z,6.70
2024-02-14T01:09:20.276Z,6.73
2024-02-14T01:10:20.246Z,6.74
2024-02-14T01:11:20.260Z,6.78
2024-02-14T01:12:20.238Z,6.85
2024-02-14T01:13:20.266Z,6.67
2024-02-14T01:14:20.217Z,6.79
2024-02-14T01:15:20.240Z,6.75
2024-02-14T01:16:20.227Z,6.93
2024-02-14T01:17:20.241Z,6.71
2024-02-14T01:18:20.367Z,6.74
2024-02-14T01:19:20.528Z,6.74
2024-02-14T01:20:20.202Z,6.75
2024-02-14T01:21:20.241Z,6.81
2024-02-14T01:22:29.305Z,6.96
2024-02-14T01:23:20.363Z,6.85
2024-02-14T01:24:20.173Z,6.81
2024-02-14T01:25:20.185Z,6.86
2024-02-14T01:26:20.147Z,6.91
2024-02-14T01:27:20.174Z,6.93
2024-02-14T01:28:20.173Z,6.96
2024-02-14T01:29:20.190Z,6.88
2024-02-14T01:30:20.133Z,6.97
2024-02-14T01:31:20.162Z,6.97
2024-02-14T01:32:20.125Z,6.97
2024-02-14T01:33:20.273Z,6.93
2024-02-14T01:34:20.387Z,6.89
2024-02-14T01:35:20.141Z,6.96
2024-02-14T01:36:20.149Z,6.93
2024-02-14T01:37:20.091Z,7.03
2024-02-14T01:38:20.107Z,7.00
2024-02-14T01:39:20.116Z,7.04
2024-02-14T01:40:20.088Z,7.26
2024-02-14T01:41:20.094Z,6.93
2024-02-14T01:42:20.071Z,7.06
2024-02-14T01:43:20.086Z,7.15
2024-02-14T01:44:20.109Z,7.16
2024-02-14T01:45:20.084Z,7.16
2024-02-14T01:46:20.065Z,7.18
2024-02-14T01:47:20.054Z,7.33
2024-02-14T01:48:20.369Z,7.24
2024-02-14T01:49:20.126Z,7.29
2024-02-14T01:50:20.063Z,7.24
2024-02-14T01:51:20.029Z,7.26
2024-02-14T01:52:20.058Z,7.31
2024-02-14T01:53:20.016Z,7.16
2024-02-14T01:54:20.076Z,7.21
2024-02-14T01:55:20.044Z,7.29
2024-02-14T01:56:20.012Z,7.28
2024-02-14T01:57:19.988Z,7.25
2024-02-14T01:58:19.988Z,7.21
2024-02-14T01:59:20.001Z,7.26
2024-02-14T02:00:20.048Z,7.31
2024-02-14T02:01:20.013Z,7.28
2024-02-14T02:02:19.989Z,7.40
2024-02-14T02:03:20.005Z,7.29
2024-02-14T02:04:19.992Z,7.54
2024-02-14T02:05:20.078Z,7.40
2024-02-14T02:06:20.076Z,7.42
2024-02-14T02:07:19.954Z,7.36
2024-02-14T02:08:19.971Z,7.39
2024-02-14T02:09:19.929Z,7.52
2024-02-14T02:10:19.994Z,7.58
2024-02-14T02:11:19.932Z,7.47
2024-02-14T02:12:19.931Z,7.57
2024-02-14T02:13:19.902Z,7.61
2024-02-14T02:14:19.902Z,7.60
2024-02-14T02:15:19.970Z,7.47
2024-02-14T02:16:19.959Z,7.50
2024-02-14T02:17:19.926Z,7.69
2024-02-14T02:18:19.988Z,7.66
2024-02-14T02:19:20.032Z,7.76
2024-02-14T02:20:20.000Z,7.81
2024-02-14T02:21:20.064Z,7.86
2024-02-14T02:22:19.870Z,7.92
2024-02-14T02:23:19.868Z,7.84
2024-02-14T02:24:19.858Z,7.86
2024-02-14T02:25:19.854Z,7.88
2024-02-14T02:26:19.864Z,7.92
2024-02-14T02:27:19.936Z,8.02
2024-02-14T02:28:19.851Z,7.95
2024-02-14T02:29:19.833Z,7.95
2024-02-14T02:30:19.833Z,7.92
2024-02-14T02:31:19.820Z,7.88
2024-02-14T02:32:19.860Z,8.05
2024-02-14T02:33:19.960Z,7.94
2024-02-14T02:34:19.842Z,7.96
2024-02-14T02:35:20.822Z,7.98
2024-02-14T02:36:19.825Z,8.02
2024-02-14T02:37:19.771Z,8.06
2024-02-14T02:38:19.837Z,8.04
2024-02-14T02:39:19.818Z,8.13
2024-02-14T02:40:19.784Z,8.06
2024-02-14T02:41:19.771Z,8.06
2024-02-14T02:42:19.769Z,8.16
2024-02-14T02:43:19.765Z,8.10
2024-02-14T02:44:19.772Z,8.16
2024-02-14T02:45:19.765Z,8.21
2024-02-14T02:46:19.742Z,8.20
2024-02-14T02:47:19.756Z,8.16
2024-02-14T02:48:19.821Z,8.17
2024-02-14T02:49:19.829Z,8.19
2024-02-14T02:50:19.727Z,8.16
2024-02-14T02:51:19.711Z,8.16
2024-02-14T02:52:19.694Z,8.21
2024-02-14T02:53:19.693Z,8.29
2024-02-14T02:54:19.681Z,8.32
2024-02-14T02:55:19.930Z,8.32
2024-02-14T02:56:19.666Z,8.21
2024-02-14T02:57:19.679Z,8.28
2024-02-14T02:58:19.674Z,8.44
2024-02-14T02:59:19.653Z,8.38
2024-02-14T03:00:19.656Z,8.39
2024-02-14T03:01:19.646Z,8.31
2024-02-14T03:02:19.668Z,8.41
2024-02-14T03:03:19.638Z,8.34
2024-02-14T03:04:19.664Z,8.41
2024-02-14T03:05:20.300Z,8.44
2024-02-14T03:06:19.724Z,8.41
2024-02-14T03:07:19.626Z,8.42
2024-02-14T03:08:19.909Z,8.44
2024-02-14T03:09:19.633Z,8.41
2024-02-14T03:10:20.021Z,8.42
2024-02-14T03:11:19.609Z,8.49
2024-02-14T03:12:19.598Z,8.41
2024-02-14T03:13:19.594Z,8.47
2024-02-14T03:14:19.600Z,8.47
2024-02-14T03:15:19.706Z,8.38
2024-02-14T03:16:19.592Z,8.46
2024-02-14T03:17:19.571Z,8.52
2024-02-14T03:18:19.706Z,8.39
2024-02-14T03:19:19.598Z,8.56
2024-02-14T03:20:19.667Z,8.47
2024-02-14T03:21:19.610Z,8.49
2024-02-14T03:22:19.523Z,8.49
2024-02-14T03:23:19.544Z,8.62
2024-02-14T03:24:19.804Z,8.56
2024-02-14T03:25:19.571Z,8.63
2024-02-14T03:26:19.529Z,8.60
2024-02-14T03:27:19.550Z,8.67
2024-02-14T03:28:19.534Z,8.68
2024-02-14T03:29:19.538Z,8.60
2024-02-14T03:30:19.832Z,8.65
2024-02-14T03:31:19.506Z,8.62
2024-02-14T03:32:19.484Z,8.60
2024-02-14T03:33:19.561Z,8.63
2024-02-14T03:34:19.527Z,8.67
2024-02-14T03:35:19.496Z,8.74
2024-02-14T03:36:19.463Z,8.71
2024-02-14T03:37:19.455Z,8.68
2024-02-14T03:38:19.471Z,8.77
2024-02-14T03:39:19.445Z,8.71
2024-02-14T03:40:19.444Z,8.72
2024-02-14T03:41:19.441Z,8.83
2024-02-14T03:42:19.430Z,8.74
2024-02-14T03:43:19.424Z,8.70
2024-02-14T03:44:19.435Z,8.67
2024-02-14T03:45:19.470Z,8.71
2024-02-14T03:46:19.398Z,8.65
2024-02-14T03:47:19.430Z,8.68
2024-02-14T03:48:19.546Z,8.68
2024-02-14T03:49:19.435Z,8.62
2024-02-14T03:50:19.437Z,8.63
2024-02-14T03:51:19.392Z,8.62
2024-02-14T03:52:20.383Z,8.71
2024-02-14T03:53:19.387Z,8.59
2024-02-14T03:54:21.398Z,8.67
2024-02-14T03:55:20.432Z,8.67
2024-02-14T03:56:19.350Z,8.71
2024-02-14T03:57:19.347Z,8.81
2024-02-14T03:58:19.359Z,8.77
2024-02-14T03:59:19.365Z,8.72
2024-02-14T04:00:19.404Z,8.78
2024-02-14T04:01:19.355Z,8.63
2024-02-14T04:02:19.334Z,8.70
2024-02-14T04:03:19.313Z,8.68
2024-02-14T04:04:19.449Z,8.75
2024-02-14T04:05:19.300Z,8.71
2024-02-14T04:06:19.502Z,8.68
2024-02-14T04:07:19.273Z,8.74
2024-02-14T04:08:19.344Z,8.70
2024-02-14T04:09:19.377Z,8.68
2024-02-14T04:10:19.263Z,8.68
2024-02-14T04:11:19.295Z,8.62
2024-02-14T04:12:19.272Z,8.68
2024-02-14T04:13:19.273Z,8.85
2024-02-14T04:14:19.262Z,8.75
2024-02-14T04:15:19.294Z,8.86
2024-02-14T04:16:19.230Z,8.75
2024-02-14T04:17:19.222Z,8.83
2024-02-14T04:18:19.601Z,8.77
2024-02-14T04:19:19.414Z,8.81
2024-02-14T04:20:19.216Z,8.75
2024-02-14T04:21:19.292Z,8.74
2024-02-14T04:22:19.222Z,8.77
2024-02-14T04:23:19.189Z,8.78
2024-02-14T04:24:19.190Z,8.83
2024-02-14T04:25:19.188Z,8.88
2024-02-14T04:26:19.198Z,8.74
2024-02-14T04:27:19.190Z,8.77
2024-02-14T04:28:19.182Z,8.80
2024-02-14T04:29:19.150Z,8.78
2024-02-14T04:30:19.195Z,8.72
2024-02-14T04:31:19.173Z,8.72
2024-02-14T04:32:19.146Z,8.71
2024-02-14T04:33:19.275Z,8.70
2024-02-14T04:34:19.266Z,8.70
2024-02-14T04:35:19.146Z,8.70
2024-02-14T04:36:19.144Z,8.71
2024-02-14T04:37:19.116Z,8.71
2024-02-14T04:38:19.109Z,8.78
2024-02-14T04:39:19.123Z,8.74
2024-02-14T04:40:19.132Z,8.67
2024-02-14T04:41:19.082Z,8.85
2024-02-14T04:42:19.159Z,8.85
2024-02-14T04:43:19.071Z,8.72
2024-02-14T04:44:19.069Z,8.75
2024-02-14T04:45:19.100Z,8.72
2024-02-14T04:46:19.051Z,8.70
2024-02-14T04:47:19.321Z,8.68
2024-02-14T04:48:19.213Z,8.68
2024-02-14T04:49:19.183Z,8.67
2024-02-14T04:50:19.033Z,8.63
2024-02-14T04:51:19.098Z,8.67
2024-02-14T04:52:19.029Z,8.59
2024-02-14T04:53:19.074Z,8.50
2024-02-14T04:54:19.039Z,8.50
2024-02-14T04:55:19.024Z,8.41
2024-02-14T04:56:19.024Z,8.44
2024-02-14T04:57:19.039Z,8.32
2024-02-14T04:58:19.301Z,8.32
2024-02-14T04:59:19.010Z,8.29
2024-02-14T05:00:19.035Z,8.35
2024-02-14T05:01:19.013Z,8.31
2024-02-14T05:02:18.976Z,8.32
2024-02-14T05:03:19.170Z,8.44
2024-02-14T05:04:19.025Z,8.52
2024-02-14T05:05:19.000Z,8.41
2024-02-14T05:06:19.065Z,8.31
2024-02-14T05:07:18.958Z,8.34
2024-02-14T05:08:18.985Z,8.26
2024-02-14T05:09:18.951Z,8.28
2024-02-14T05:10:18.925Z,8.21
2024-02-14T05:11:18.950Z,8.21
2024-02-14T05:12:18.988Z,8.34
2024-02-14T05:13:18.990Z,8.26
2024-02-14T05:14:18.915Z,8.34
2024-02-14T05:15:18.959Z,8.31
2024-02-14T05:16:18.907Z,8.38
2024-02-14T05:17:18.873Z,8.35
2024-02-14T05:18:19.014Z,8.41
2024-02-14T05:19:19.162Z,8.26
2024-02-14T05:20:18.894Z,8.31
2024-02-14T05:21:18.872Z,8.35
2024-02-14T05:22:18.851Z,8.38
2024-02-14T05:23:18.841Z,8.21
2024-02-14T05:24:19.044Z,8.19
2024-02-14T05:25:18.868Z,8.28
2024-02-14T05:26:18.827Z,8.23
2024-02-14T05:27:18.914Z,8.17
2024-02-14T05:28:18.873Z,8.35
2024-02-14T05:29:18.837Z,8.24
2024-02-14T05:30:18.971Z,8.19
2024-02-14T05:31:18.824Z,8.20
2024-02-14T05:32:18.832Z,8.17
2024-02-14T05:33:18.993Z,8.37
2024-02-14T05:34:19.126Z,8.29
2024-02-14T05:35:18.815Z,8.24
2024-02-14T05:36:18.810Z,8.34
2024-02-14T05:37:18.774Z,8.37
2024-02-14T05:38:18.782Z,8.28
2024-02-14T05:39:18.783Z,8.41
2024-02-14T05:40:19.010Z,8.46
2024-02-14T05:41:18.774Z,8.47
2024-02-14T05:42:18.765Z,8.32
2024-02-14T05:43:18.764Z,8.29
2024-02-14T05:44:18.737Z,8.39
2024-02-14T05:45:18.779Z,8.42
2024-02-14T05:46:18.749Z,8.42
2024-02-14T05:47:18.727Z,8.41
2024-02-14T05:48:18.808Z,8.47
2024-02-14T05:49:18.884Z,8.42
2024-02-14T05:50:18.733Z,8.50
2024-02-14T05:51:18.705Z,8.42
2024-02-14T05:52:18.692Z,8.47
2024-02-14T05:53:18.709Z,8.42
2024-02-14T05:54:18.689Z,8.47
2024-02-14T05:55:18.686Z,8.50
2024-02-14T05:56:18.704Z,8.47
2024-02-14T05:57:18.700Z,8.46
2024-02-14T05:58:18.668Z,8.53
2024-02-14T05:59:18.661Z,8.46
2024-02-14T06:00:18.907Z,8.46
2024-02-14T06:01:18.680Z,8.37
2024-02-14T06:02:18.667Z,8.39
2024-02-14T06:03:18.644Z,8.42
2024-02-14T06:04:18.685Z,8.46
2024-02-14T06:05:18.640Z,8.47
2024-02-14T06:06:19.040Z,8.42
2024-02-14T06:07:18.613Z,8.41
2024-02-14T06:08:18.642Z,8.47
2024-02-14T06:09:18.626Z,8.50
2024-02-14T06:10:18.628Z,8.41
2024-02-14T06:11:18.623Z,8.55
2024-02-14T06:12:18.680Z,8.52
2024-02-14T06:13:18.626Z,8.42
2024-02-14T06:14:18.598Z,8.37
2024-02-14T06:15:18.622Z,8.35
2024-02-14T06:16:18.582Z,8.39
2024-02-14T06:17:18.667Z,8.46
2024-02-14T06:18:18.701Z,8.44
2024-02-14T06:19:18.660Z,8.53
2024-02-14T06:20:18.624Z,8.60
2024-02-14T06:21:18.580Z,8.49
2024-02-14T06:22:18.609Z,8.55
2024-02-14T06:23:18.542Z,8.55
2024-02-14T06:24:18.584Z,8.57
2024-02-14T06:25:18.540Z,8.50
2024-02-14T06:26:18.516Z,8.67
2024-02-14T06:27:18.602Z,8.74
2024-02-14T06:28:18.520Z,8.62
2024-02-14T06:29:18.504Z,8.59
2024-02-14T06:30:19.071Z,8.72
2024-02-14T06:31:18.523Z,8.75
2024-02-14T06:32:18.618Z,8.70
2024-02-14T06:33:18.659Z,8.74
2024-02-14T06:34:18.683Z,8.70
2024-02-14T06:35:18.717Z,8.78
2024-02-14T06:36:18.499Z,8.81
2024-02-14T06:37:18.479Z,8.81
2024-02-14T06:38:18.480Z,8.77
2024-02-14T06:39:18.434Z,8.70
2024-02-14T06:40:18.442Z,8.65
2024-02-14T06:41:18.436Z,8.70
2024-02-14T06:42:18.468Z,8.60
2024-02-14T06:43:18.544Z,8.63
2024-02-14T06:44:18.436Z,8.77
2024-02-14T06:45:18.527Z,8.65
2024-02-14T06:46:18.435Z,8.72
2024-02-14T06:47:18.422Z,8.78
2024-02-14T06:48:18.510Z,8.88
2024-02-14T06:49:18.583Z,8.85
2024-02-14T06:50:18.396Z,8.85
2024-02-14T06:51:18.407Z,8.89
2024-02-14T06:52:18.372Z,8.83
2024-02-14T06:53:18.369Z,8.78
2024-02-14T06:54:18.386Z,8.80
2024-02-14T06:55:18.386Z,8.71
2024-02-14T06:56:18.381Z,8.74
2024-02-14T06:57:18.354Z,8.70
2024-02-14T06:58:18.347Z,8.75
2024-02-14T06:59:18.370Z,8.81
2024-02-14T07:00:18.373Z,8.77
2024-02-14T07:01:18.374Z,8.80
2024-02-14T07:02:18.338Z,8.86
2024-02-14T07:03:18.425Z,8.89
2024-02-14T07:04:18.319Z,8.88
2024-02-14T07:05:18.339Z,8.92
2024-02-14T07:06:18.370Z,8.90
2024-02-14T07:07:18.349Z,8.88
2024-02-14T07:08:18.314Z,8.98
2024-02-14T07:09:18.330Z,8.77
2024-02-14T07:10:18.259Z,9.01
2024-02-14T07:11:18.275Z,8.88
2024-02-14T07:12:18.275Z,8.96
2024-02-14T07:13:18.265Z,8.99
2024-02-14T07:14:18.414Z,9.01
2024-02-14T07:15:18.313Z,9.01
2024-02-14T07:16:18.285Z,8.99
2024-02-14T07:17:18.276Z,8.93
2024-02-14T07:18:18.363Z,9.03
2024-02-14T07:19:18.389Z,9.03
2024-02-14T07:20:18.277Z,9.11
2024-02-14T07:21:18.247Z,9.11
2024-02-14T07:22:18.207Z,9.11
2024-02-14T07:23:52.474Z,8.95
2024-02-14T07:24:18.252Z,9.03
2024-02-14T07:25:18.216Z,8.93
2024-02-14T07:26:18.209Z,8.98
2024-02-14T07:27:18.252Z,8.98
2024-02-14T07:28:18.164Z,8.96
2024-02-14T07:29:18.214Z,9.03
2024-02-14T07:30:18.299Z,9.06
2024-02-14T07:31:18.184Z,9.09
2024-02-14T07:32:18.177Z,9.14
2024-02-14T07:33:18.346Z,9.16
2024-02-14T07:34:18.351Z,9.12
2024-02-14T07:35:18.172Z,9.12
2024-02-14T07:36:18.194Z,9.14
2024-02-14T07:37:18.156Z,9.15
2024-02-14T07:38:18.110Z,9.11
2024-02-14T07:39:18.130Z,9.08
2024-02-14T07:40:18.834Z,9.08
2024-02-14T07:41:19.126Z,9.09
2024-02-14T07:42:18.134Z,8.98
2024-02-14T07:43:18.104Z,9.09
2024-02-14T07:44:18.135Z,9.09
2024-02-14T07:45:18.186Z,9.09
2024-02-14T07:46:18.094Z,9.04
2024-02-14T07:47:18.076Z,9.12
2024-02-14T07:48:18.140Z,9.23
2024-02-14T07:49:18.063Z,9.23
2024-02-14T07:50:18.052Z,9.16
2024-02-14T07:51:18.079Z,9.27
2024-02-14T07:52:18.063Z,9.24
2024-02-14T07:53:18.029Z,9.18
2024-02-14T07:54:18.057Z,9.23
2024-02-14T07:55:18.015Z,9.24
2024-02-14T07:56:18.035Z,9.32
2024-02-14T07:57:18.037Z,9.42
2024-02-14T07:58:18.007Z,9.48
2024-02-14T07:59:18.002Z,9.42
2024-02-14T08:00:18.069Z,9.44
2024-02-14T08:01:19.025Z,9.47
2024-02-14T08:02:17.993Z,9.54
2024-02-14T08:03:17.984Z,9.48
2024-02-14T08:04:18.052Z,9.54
2024-02-14T08:05:18.016Z,9.63
2024-02-14T08:06:18.090Z,9.65
2024-02-14T08:07:17.967Z,9.77
2024-02-14T08:08:17.948Z,9.81
2024-02-14T08:09:17.987Z,9.87
2024-02-14T08:10:17.966Z,9.84
2024-02-14T08:11:17.965Z,9.91
2024-02-14T08:12:17.999Z,9.93
2024-02-14T08:13:17.927Z,10.01
2024-02-14T08:14:17.941Z,10.01
2024-02-14T08:15:17.946Z,10.01
2024-02-14T08:16:17.934Z,9.90
2024-02-14T08:17:17.937Z,9.99
2024-02-14T08:18:17.965Z,9.93
2024-02-14T08:19:17.970Z,10.10
2024-02-14T08:20:17.937Z,10.02
2024-02-14T08:21:17.929Z,10.02
2024-02-14T08:22:17.883Z,10.09
2024-02-14T08:23:17.888Z,10.16
2024-02-14T08:24:17.963Z,10.26
2024-02-14T08:25:17.863Z,10.14
2024-02-14T08:26:17.871Z,10.21
2024-02-14T08:27:17.958Z,10.14
2024-02-14T08:28:17.876Z,10.24
2024-02-14T08:29:17.845Z,10.21
2024-02-14T08:30:17.884Z,10.26
2024-02-14T08:31:18.013Z,10.24
2024-02-14T08:32:17.841Z,10.38
2024-02-14T08:33:18.013Z,10.38
2024-02-14T08:34:18.015Z,10.41
2024-02-14T08:35:17.870Z,10.41
2024-02-14T08:36:17.865Z,10.46
2024-02-14T08:37:17.838Z,10.45
2024-02-14T08:38:17.834Z,10.58
2024-02-14T08:39:17.839Z,10.65
2024-02-14T08:40:17.815Z,10.62
2024-02-14T08:41:17.803Z,10.58
2024-02-14T08:42:17.833Z,10.64
2024-02-14T08:43:17.789Z,10.79
2024-02-14T08:44:17.806Z,10.76
2024-02-14T08:45:17.799Z,10.76
2024-02-14T08:46:17.815Z,10.75
2024-02-14T08:47:17.768Z,10.79
2024-02-14T08:48:17.800Z,10.83
2024-02-14T08:49:17.992Z,10.86
2024-02-14T08:50:17.810Z,10.94
2024-02-14T08:51:18.372Z,10.95
2024-02-14T08:52:17.744Z,10.82
2024-02-14T08:53:17.773Z,10.86
2024-02-14T08:54:17.748Z,10.90
2024-02-14T08:55:17.984Z,10.80
2024-02-14T08:56:17.742Z,10.93
2024-02-14T08:57:17.747Z,11.16
2024-02-14T08:58:17.721Z,11.40
2024-02-14T08:59:17.690Z,11.43
2024-02-14T09:00:18.068Z,11.48
2024-02-14T09:01:17.729Z,11.70
2024-02-14T09:02:17.705Z,11.61
2024-02-14T09:03:17.747Z,11.61
2024-02-14T09:04:17.752Z,11.62
2024-02-14T09:05:17.694Z,11.59
2024-02-14T09:06:17.738Z,11.58
2024-02-14T09:07:17.746Z,11.56
2024-02-14T09:08:17.677Z,11.46
2024-02-14T09:09:17.672Z,11.43
2024-02-14T09:10:17.664Z,11.23
2024-02-14T09:11:17.920Z,11.28
2024-02-14T09:12:17.646Z,11.23
2024-02-14T09:13:17.630Z,11.27
2024-02-14T09:14:17.647Z,11.20
2024-02-14T09:15:17.654Z,11.18
2024-02-14T09:16:17.618Z,11.25
2024-02-14T09:17:17.621Z,11.20
2024-02-14T09:18:17.666Z,11.11
2024-02-14T09:19:17.685Z,11.08
2024-02-14T09:20:17.742Z,11.11
2024-02-14T09:21:19.003Z,10.97
2024-02-14T09:22:18.610Z,10.85
2024-02-14T09:23:17.578Z,10.78
2024-02-14T09:24:17.668Z,10.83
2024-02-14T09:25:17.615Z,10.76
2024-02-14T09:26:17.605Z,10.68
2024-02-14T09:27:17.627Z,10.72
2024-02-14T09:28:17.571Z,10.73
2024-02-14T09:29:17.544Z,10.82
2024-02-14T09:30:24.891Z,10.78
2024-02-14T09:31:18.529Z,10.76
2024-02-14T09:32:17.550Z,10.80
2024-02-14T09:33:17.692Z,10.57
2024-02-14T09:34:17.847Z,10.48
2024-02-14T09:35:17.529Z,10.62
2024-02-14T09:36:17.615Z,10.55
2024-02-14T09:37:17.546Z,10.65
2024-02-14T09:38:17.532Z,10.55
2024-02-14T09:39:17.559Z,10.64
2024-02-14T09:40:17.512Z,10.61
2024-02-14T09:41:17.486Z,10.61
2024-02-14T09:42:17.596Z,10.68
2024-02-14T09:43:17.508Z,10.79
2024-02-14T09:44:17.447Z,10.82
2024-02-14T09:45:20.614Z,10.83
2024-02-14T09:46:19.444Z,10.94
2024-02-14T09:47:17.452Z,10.87
2024-02-14T09:48:17.570Z,10.94
2024-02-14T09:49:17.534Z,10.76
2024-02-14T09:50:17.439Z,10.98
2024-02-14T09:51:17.455Z,11.03
2024-02-14T09:52:17.438Z,11.08
2024-02-14T09:53:17.435Z,11.05
2024-02-14T09:54:17.533Z,11.08
2024-02-14T09:55:17.455Z,11.01
2024-02-14T09:56:17.445Z,11.08
2024-02-14T09:57:17.462Z,11.11
2024-02-14T09:58:17.458Z,10.98
2024-02-14T09:59:17.389Z,11.03
2024-02-14T10:00:17.466Z,11.11
2024-02-14T10:01:17.397Z,11.01
2024-02-14T10:02:17.394Z,11.03
2024-02-14T10:03:17.560Z,10.93
2024-02-14T10:04:17.421Z,11.01
2024-02-14T10:05:17.383Z,11.04
2024-02-14T10:06:17.459Z,10.98
2024-02-14T10:07:17.389Z,11.16
2024-02-14T10:08:17.359Z,11.05
2024-02-14T10:09:18.399Z,11.04
2024-02-14T10:10:17.353Z,11.13
2024-02-14T10:11:17.323Z,11.13
2024-02-14T10:12:17.444Z,11.18
2024-02-14T10:13:17.391Z,11.28
2024-02-14T10:14:17.322Z,11.22
2024-02-14T10:15:17.462Z,11.20
2024-02-14T10:16:17.335Z,11.25
2024-02-14T10:17:17.325Z,11.15
2024-02-14T10:18:17.403Z,11.20
2024-02-14T10:19:17.403Z,11.15
2024-02-14T10:20:17.298Z,11.16
2024-02-14T10:21:17.417Z,11.11
2024-02-14T10:22:17.320Z,11.11
2024-02-14T10:23:17.309Z,11.13
2024-02-14T10:24:17.391Z,11.23
2024-02-14T10:25:17.305Z,11.15
2024-02-14T10:26:17.272Z,11.25
2024-02-14T10:27:17.355Z,11.20
2024-02-14T10:28:17.270Z,11.23
2024-02-14T10:29:17.290Z,11.20
2024-02-14T10:30:17.375Z,11.23
2024-02-14T10:31:17.260Z,10.97
2024-02-14T10:32:17.239Z,10.93
2024-02-14T10:33:24.575Z,10.90
2024-02-14T10:34:18.388Z,10.97
2024-02-14T10:35:17.319Z,10.93
2024-02-14T10:36:17.245Z,10.91
2024-02-14T10:37:17.245Z,10.83
2024-02-14T10:38:17.248Z,10.72
2024-02-14T10:39:17.231Z,10.75
2024-02-14T10:40:17.219Z,10.78
2024-02-14T10:41:17.216Z,10.83
2024-02-14T10:42:17.238Z,10.93
2024-02-14T10:43:17.207Z,10.91
2024-02-14T10:44:17.198Z,10.90
2024-02-14T10:45:17.281Z,10.95
2024-02-14T10:46:17.166Z,10.83
2024-02-14T10:47:17.180Z,10.79
2024-02-14T10:48:17.253Z,10.85
2024-02-14T10:49:17.311Z,10.91
2024-02-14T10:50:17.188Z,10.97
2024-02-14T10:51:17.198Z,11.13
2024-02-14T10:52:17.155Z,11.20
2024-02-14T10:53:17.422Z,11.20
2024-02-14T10:54:17.257Z,11.31
2024-02-14T10:55:17.130Z,11.31
2024-02-14T10:56:17.135Z,11.49
2024-02-14T10:57:17.196Z,11.43
2024-02-14T10:58:17.120Z,11.43
2024-02-14T10:59:17.132Z,11.41
2024-02-14T11:00:17.146Z,11.52
2024-02-14T11:01:17.130Z,11.46
2024-02-14T11:02:17.141Z,11.46
2024-02-14T11:03:17.438Z,11.61
2024-02-14T11:04:17.287Z,11.51
2024-02-14T11:05:17.077Z,11.45
2024-02-14T11:06:17.141Z,11.51
2024-02-14T11:07:17.101Z,11.43
2024-02-14T11:08:17.115Z,11.31
2024-02-14T11:09:17.310Z,11.27
2024-02-14T11:10:17.183Z,11.38
2024-02-14T11:11:17.087Z,11.33
2024-02-14T11:12:17.080Z,11.51
2024-02-14T11:13:17.070Z,11.41
2024-02-14T11:14:17.029Z,11.49
2024-02-14T11:15:17.126Z,11.52
2024-02-14T11:16:17.030Z,11.55
2024-02-14T11:17:17.029Z,11.56
2024-02-14T11:18:17.131Z,11.55
2024-02-14T11:19:17.130Z,11.43
2024-02-14T11:20:17.147Z,11.48
2024-02-14T11:21:17.351Z,11.49
2024-02-14T11:22:17.017Z,11.37
2024-02-14T11:23:18.104Z,11.20
2024-02-14T11:24:17.568Z,11.23
2024-02-14T11:25:17.005Z,11.27
2024-02-14T11:26:17.021Z,11.27
2024-02-14T11:27:29.912Z,11.22
2024-02-14T11:28:18.977Z,11.20
2024-02-14T11:29:19.485Z,11.18
2024-02-14T11:30:17.016Z,11.22
2024-02-14T11:31:16.968Z,11.15
2024-02-14T11:32:16.985Z,11.05
2024-02-14T11:33:17.199Z,11.03
2024-02-14T11:34:17.083Z,11.15
2024-02-14T11:35:16.988Z,11.15
2024-02-14T11:36:16.990Z,11.20
2024-02-14T11:37:16.958Z,11.25
2024-02-14T11:38:16.934Z,11.30
2024-02-14T11:39:16.962Z,11.36
2024-02-14T11:40:16.945Z,11.37
2024-02-14T11:41:16.928Z,11.36
2024-02-14T11:42:17.024Z,11.34
2024-02-14T11:43:17.049Z,11.31
2024-02-14T11:44:16.899Z,11.34
2024-02-14T11:45:16.990Z,11.40
2024-02-14T11:46:16.896Z,11.27
2024-02-14T11:47:16.912Z,11.34
2024-02-14T11:48:17.060Z,11.51
2024-02-14T11:49:17.044Z,11.46
2024-02-14T11:50:16.895Z,11.43
2024-02-14T11:51:16.952Z,11.46
2024-02-14T11:52:16.854Z,11.54
2024-02-14T11:53:16.863Z,11.46
2024-02-14T11:54:17.157Z,11.37
2024-02-14T11:55:16.859Z,11.19
2024-02-14T11:56:16.862Z,11.16
2024-02-14T11:57:16.857Z,11.11
2024-02-14T11:58:16.830Z,11.22
2024-02-14T11:59:16.911Z,11.08
2024-02-14T12:00:16.913Z,11.00
2024-02-14T12:01:16.872Z,11.11
2024-02-14T12:02:16.828Z,11.04
2024-02-14T12:03:16.866Z,11.09
2024-02-14T12:04:16.799Z,11.01
2024-02-14T12:05:17.118Z,11.01
2024-02-14T12:06:16.883Z,11.12
2024-02-14T12:07:16.905Z,11.11
2024-02-14T12:08:16.881Z,11.13
2024-02-14T12:09:16.911Z,11.16
2024-02-14T12:10:16.919Z,11.09
2024-02-14T12:11:16.792Z,11.09
2024-02-14T12:12:16.874Z,11.13
2024-02-14T12:13:19.153Z,11.16
2024-02-14T12:14:16.838Z,11.22
2024-02-14T12:15:17.804Z,11.19
2024-02-14T12:16:16.737Z,11.20
2024-02-14T12:17:16.744Z,11.31
2024-02-14T12:18:16.946Z,11.37
2024-02-14T12:19:17.636Z,11.33
2024-02-14T12:20:16.736Z,11.34
2024-02-14T12:21:16.881Z,11.36
2024-02-14T12:22:16.720Z,11.40
2024-02-14T12:23:16.730Z,11.48
2024-02-14T12:24:16.866Z,11.43
2024-02-14T12:25:16.782Z,11.54
2024-02-14T12:26:16.730Z,11.52
2024-02-14T12:27:16.744Z,11.56
2024-02-14T12:28:16.715Z,11.69
2024-02-14T12:29:16.696Z,11.66
2024-02-14T12:30:16.798Z,11.67
2024-02-14T12:31:18.415Z,11.69
2024-02-14T12:32:16.735Z,11.71
2024-02-14T12:33:16.790Z,11.77
2024-02-14T12:34:16.827Z,11.67
2024-02-14T12:35:16.774Z,11.64
2024-02-14T12:36:16.766Z,11.73
2024-02-14T12:37:16.684Z,11.59
2024-02-14T12:38:16.672Z,11.69
2024-02-14T12:39:16.639Z,11.61
2024-02-14T12:40:16.628Z,11.67
2024-02-14T12:41:16.650Z,11.74
2024-02-14T12:42:16.732Z,11.64
2024-02-14T12:43:16.648Z,11.69
2024-02-14T12:44:16.642Z,11.76
2024-02-14T12:45:16.912Z,11.77
2024-02-14T12:46:17.609Z,11.84
2024-02-14T12:47:16.603Z,11.82
2024-02-14T12:48:16.761Z,11.77
2024-02-14T12:49:16.702Z,11.73
2024-02-14T12:50:16.611Z,11.77
2024-02-14T12:51:18.130Z,11.84
2024-02-14T12:52:17.593Z,11.84
2024-02-14T12:53:16.590Z,11.77
2024-02-14T12:54:16.638Z,11.74
2024-02-14T12:55:16.566Z,11.77
2024-02-14T12:56:16.589Z,11.80
2024-02-14T12:57:17.136Z,11.80
2024-02-14T12:58:16.543Z,11.79
2024-02-14T12:59:16.586Z,11.79
2024-02-14T13:00:16.675Z,11.77
2024-02-14T13:01:16.606Z,11.77
2024-02-14T13:02:16.521Z,11.91
2024-02-14T13:03:18.565Z,11.84
2024-02-14T13:04:16.576Z,11.76
2024-02-14T13:05:16.563Z,11.82
2024-02-14T13:06:16.619Z,11.79
2024-02-14T13:07:16.549Z,11.70
2024-02-14T13:08:16.540Z,11.73